Terminal Aerodrome Forecast
Issued by NWS Detroit/Pontiac, MI

Home | Current Version | Previous Version | Text Only | Print | Product List | Glossary On
Versions: 1 2 3 4 5 6 7 8 9 10 11 12
651
FTUS43 KDTX 232320
TAFFNT
TAF
KFNT 232320Z 2400/2424 14007KT P6SM SCT150 BKN250
     FM240300 15006KT P6SM SCT070 OVC150
     FM240800 16004KT P6SM -SHRA OVC060
     FM241500 12008KT 4SM -RA BR OVC030
     FM241800 11008KT 4SM -RA BR OVC015
     FM242300 10006KT 3SM -RA BR OVC008=

USA.gov is the U.S. government's official web portal to all federal, state and local government web resources and services.